createdAt,value
2023-02-13T00:03:06.284Z,102951.69
2023-02-13T00:08:10.443Z,102957.06
2023-02-13T00:13:13.199Z,102959.25
2023-02-13T00:18:15.932Z,102958.50
2023-02-13T00:23:19.981Z,102954.38
2023-02-13T00:28:22.744Z,102977.47
2023-02-13T00:33:25.505Z,103027.94
2023-02-13T00:38:30.681Z,103015.28
2023-02-13T00:43:33.710Z,103027.47
2023-02-13T00:48:36.972Z,103036.25
2023-02-13T00:53:42.128Z,103040.13
2023-02-13T00:58:44.912Z,103052.75
2023-02-13T01:03:47.826Z,103055.72
2023-02-13T01:08:51.974Z,103048.78
2023-02-13T01:13:54.735Z,103048.16
2023-02-13T01:18:57.495Z,103041.06
2023-02-13T01:24:04.445Z,103043.84
2023-02-13T01:29:07.461Z,103046.47
2023-02-13T01:34:10.187Z,103040.78
2023-02-13T01:39:14.554Z,103049.56
2023-02-13T01:44:46.730Z,103042.63
2023-02-13T01:49:51.515Z,103037.97
2023-02-13T01:54:55.609Z,103040.59
2023-02-13T02:00:02.865Z,103040.59
2023-02-13T02:05:07.963Z,103021.94
2023-02-13T02:10:17.620Z,103026.13
2023-02-13T02:15:21.298Z,103024.63
2023-02-13T02:20:36.715Z,103025.69
2023-02-13T02:26:02.522Z,103022.72
2023-02-13T02:31:41.854Z,103017.66
2023-02-13T02:37:06.709Z,103018.25
2023-02-13T02:42:19.774Z,103015.19
2023-02-13T02:47:43.724Z,103023.66
2023-02-13T02:52:59.951Z,103011.38
2023-02-13T02:58:26.513Z,103011.03
2023-02-13T03:03:46.261Z,103005.97
2023-02-13T03:09:12.148Z,103024.13
2023-02-13T03:14:17.771Z,103021.06
2023-02-13T03:19:47.269Z,103022.28
2023-02-13T03:24:58.450Z,103026.03
2023-02-13T03:30:08.428Z,103020.59
2023-02-13T03:35:38.647Z,103031.88
2023-02-13T03:41:02.456Z,103037.09
2023-02-13T03:46:05.548Z,103042.69
2023-02-13T03:51:09.968Z,103046.38
2023-02-13T03:56:32.007Z,103049.16
2023-02-13T04:01:36.931Z,103060.09
2023-02-13T04:06:44.148Z,103061.81
2023-02-13T04:11:54.562Z,103063.81
2023-02-13T04:17:00.496Z,103069.81
2023-02-13T04:22:03.758Z,103072.16
2023-02-13T04:27:08.110Z,103108.69
2023-02-13T04:32:11.319Z,103128.09
2023-02-13T04:37:14.257Z,103135.34
2023-02-13T04:42:18.322Z,103131.34
2023-02-13T04:47:21.018Z,103128.41
2023-02-13T04:52:23.973Z,103129.16
2023-02-13T04:57:28.061Z,103138.28
2023-02-13T05:02:32.263Z,103135.97
2023-02-13T05:07:34.976Z,103139.19
2023-02-13T05:12:39.070Z,103146.59
2023-02-13T05:17:44.538Z,103152.00
2023-02-13T05:23:05.346Z,103153.38
2023-02-13T05:28:30.380Z,103166.03
2023-02-13T05:33:33.161Z,103166.03
2023-02-13T05:38:35.887Z,103175.09
2023-02-13T05:43:39.954Z,103175.25
2023-02-13T05:48:42.768Z,103176.94
2023-02-13T05:53:45.468Z,103170.94
2023-02-13T05:58:52.362Z,103173.72
2023-02-13T06:03:56.275Z,103168.75
2023-02-13T06:09:00.537Z,103173.25
2023-02-13T06:14:04.687Z,103174.47
2023-02-13T06:19:08.031Z,103169.09
2023-02-13T06:24:10.734Z,103158.28
2023-02-13T06:29:14.856Z,103168.78
2023-02-13T06:34:17.573Z,103164.16
2023-02-13T06:39:20.393Z,103161.81
2023-02-13T06:44:24.488Z,103167.56
2023-02-13T06:49:27.190Z,103171.56
2023-02-13T06:54:45.871Z,103161.66
2023-02-13T06:59:50.222Z,103157.19
2023-02-13T07:04:53.364Z,103156.75
2023-02-13T07:09:56.150Z,103166.63
2023-02-13T07:15:00.267Z,103168.16
2023-02-13T07:20:04.416Z,103162.28
2023-02-13T07:25:08.002Z,103153.50
2023-02-13T07:30:12.954Z,103150.59
2023-02-13T07:35:15.668Z,103148.72
2023-02-13T07:40:18.570Z,103139.34
2023-02-13T07:45:22.643Z,103157.38
2023-02-13T07:50:25.649Z,103161.38
2023-02-13T07:55:28.749Z,103144.25
2023-02-13T08:00:32.848Z,103131.66
2023-02-13T08:05:35.742Z,103100.31
2023-02-13T08:11:07.255Z,103084.59
2023-02-13T08:16:11.340Z,103060.97
2023-02-13T08:21:15.217Z,103051.13
2023-02-13T08:26:17.948Z,103032.50
2023-02-13T08:31:22.022Z,103024.00
2023-02-13T08:36:24.941Z,103020.94
2023-02-13T08:41:27.670Z,103011.03
2023-02-13T08:46:31.840Z,103000.88
2023-02-13T08:51:34.619Z,102992.03
2023-02-13T08:56:37.308Z,102992.50
2023-02-13T09:01:41.476Z,102980.63
2023-02-13T09:06:44.266Z,102976.16
2023-02-13T09:11:46.982Z,102971.81
2023-02-13T09:16:51.164Z,102966.22
2023-02-13T09:21:53.910Z,102953.34
2023-02-13T09:26:57.116Z,102935.81
2023-02-13T09:32:01.643Z,102927.41
2023-02-13T09:37:04.504Z,102909.88
2023-02-13T09:42:08.865Z,102886.16
2023-02-13T09:47:17.911Z,102861.25
2023-02-13T09:52:20.680Z,102845.09
2023-02-13T09:57:29.787Z,102844.47
2023-02-13T10:02:47.641Z,102839.94
2023-02-13T10:07:56.411Z,102829.00
2023-02-13T10:13:09.369Z,102825.09
2023-02-13T10:18:15.883Z,102831.97
2023-02-13T10:23:23.377Z,102828.06
2023-02-13T10:28:32.207Z,102828.56
2023-02-13T10:33:41.975Z,102811.13
2023-02-13T10:38:46.689Z,102808.22
2023-02-13T10:44:02.315Z,102795.50
2023-02-13T10:49:21.150Z,102793.25
2023-02-13T10:54:33.855Z,102773.44
2023-02-13T10:59:48.254Z,102756.13
2023-02-13T11:04:53.817Z,102743.53
2023-02-13T11:09:59.624Z,102745.53
2023-02-13T11:15:04.023Z,102742.50
2023-02-13T11:20:23.103Z,102736.31
2023-02-13T11:25:28.752Z,102728.47
2023-02-13T11:30:33.716Z,102724.47
2023-02-13T11:35:38.529Z,102710.16
2023-02-13T11:40:44.434Z,102704.63
2023-02-13T11:45:47.173Z,102696.59
2023-02-13T11:50:56.274Z,102708.94
2023-02-13T11:56:09.178Z,102683.44
2023-02-13T12:01:25.803Z,102681.69
2023-02-13T12:06:30.035Z,102665.09
2023-02-13T12:11:37.953Z,102659.94
2023-02-13T12:16:42.758Z,102654.91
2023-02-13T12:22:02.549Z,102650.97
2023-02-13T12:27:11.133Z,102644.94
2023-02-13T12:32:19.884Z,102634.94
2023-02-13T12:37:53.477Z,102625.53
2023-02-13T12:43:11.472Z,102620.25
2023-02-13T12:48:24.486Z,102610.72
2023-02-13T12:53:47.608Z,102611.22
2023-02-13T12:59:01.502Z,102607.03
2023-02-13T13:04:13.602Z,102592.00
2023-02-13T13:09:30.994Z,102586.97
2023-02-13T13:14:37.797Z,102589.31
2023-02-13T13:19:45.552Z,102581.41
2023-02-13T13:24:56.642Z,102570.94
2023-02-13T13:30:00.995Z,102572.66
2023-02-13T13:35:05.342Z,102562.59
2023-02-13T13:40:30.101Z,102554.47
2023-02-13T13:45:40.580Z,102547.69
2023-02-13T13:50:44.442Z,102545.75
2023-02-13T13:56:09.156Z,102544.41
2023-02-13T14:01:24.053Z,102543.75
2023-02-13T14:06:28.364Z,102536.00
2023-02-13T14:11:46.756Z,102541.81
2023-02-13T14:16:49.809Z,102544.66
2023-02-13T14:21:52.989Z,102538.59
2023-02-13T14:27:05.225Z,102544.97
2023-02-13T14:32:24.328Z,102523.06
2023-02-13T14:37:34.471Z,102529.75
2023-02-13T14:42:39.262Z,102524.91
2023-02-13T14:47:43.923Z,102507.47
2023-02-13T14:52:47.560Z,102515.50
2023-02-13T14:57:54.149Z,102514.22
2023-02-13T15:03:00.491Z,102512.25
2023-02-13T15:08:04.937Z,102497.72
2023-02-13T15:13:15.686Z,102507.19
2023-02-13T15:18:21.043Z,102498.31
2023-02-13T15:23:26.549Z,102496.94
2023-02-13T15:28:30.836Z,102483.66
2023-02-13T15:33:37.476Z,102484.63
2023-02-13T15:38:41.039Z,102482.34
2023-02-13T15:43:47.135Z,102474.16
2023-02-13T15:48:49.993Z,102467.00
2023-02-13T15:53:52.987Z,102475.81
2023-02-13T15:58:57.546Z,102471.78
2023-02-13T16:04:03.688Z,102472.69
2023-02-13T16:09:06.984Z,102476.28
2023-02-13T16:14:19.332Z,102472.78
2023-02-13T16:19:27.678Z,102463.63
2023-02-13T16:24:30.690Z,102454.88
2023-02-13T16:29:34.873Z,102450.69
2023-02-13T16:34:37.708Z,102446.25
2023-02-13T16:39:40.389Z,102441.13
2023-02-13T16:44:44.413Z,102441.34
2023-02-13T16:49:52.694Z,102432.72
2023-02-13T16:54:56.659Z,102446.94
2023-02-13T17:00:05.093Z,102442.75
2023-02-13T17:05:21.302Z,102451.03
2023-02-13T17:10:27.325Z,102459.88
2023-02-13T17:15:32.449Z,102465.38
2023-02-13T17:20:36.261Z,102468.03
2023-02-13T17:25:39.194Z,102461.97
2023-02-13T17:30:44.301Z,102471.69
2023-02-13T17:35:47.030Z,102468.41
2023-02-13T17:40:50.320Z,102469.44
2023-02-13T17:45:54.471Z,102467.47
2023-02-13T17:50:57.561Z,102476.22
2023-02-13T17:56:00.405Z,102477.53
2023-02-13T18:01:04.649Z,102475.56
2023-02-13T18:06:07.939Z,102470.81
2023-02-13T18:11:11.628Z,102468.59
2023-02-13T18:16:16.171Z,102462.13
2023-02-13T18:21:18.936Z,102459.69
2023-02-13T18:26:21.638Z,102465.78
2023-02-13T18:31:25.836Z,102470.94
2023-02-13T18:36:28.688Z,102479.06
2023-02-13T18:41:31.760Z,102478.16
2023-02-13T18:46:37.014Z,102477.69
2023-02-13T18:51:39.733Z,102477.63
2023-02-13T18:56:42.432Z,102466.44
2023-02-13T19:01:46.710Z,102475.94
2023-02-13T19:06:49.449Z,102470.28
2023-02-13T19:11:52.167Z,102461.09
2023-02-13T19:16:56.200Z,102466.97
2023-02-13T19:21:58.889Z,102461.09
2023-02-13T19:27:01.580Z,102466.97
2023-02-13T19:32:05.978Z,102467.50
2023-02-13T19:37:08.738Z,102459.28
2023-02-13T19:42:11.413Z,102466.69
2023-02-13T19:47:15.457Z,102473.66
2023-02-13T19:52:18.157Z,102482.44
2023-02-13T19:57:21.827Z,102484.28
2023-02-13T20:02:25.941Z,102481.81
2023-02-13T20:07:28.720Z,102497.84
2023-02-13T20:12:31.500Z,102522.91
2023-02-13T20:17:38.695Z,102561.22
2023-02-13T20:22:41.462Z,102603.44
2023-02-13T20:27:44.165Z,102634.50
2023-02-13T20:32:48.215Z,102643.28
2023-02-13T20:37:50.923Z,102642.84
2023-02-13T20:42:53.817Z,102648.22
2023-02-13T20:47:57.883Z,102664.41
2023-02-13T20:53:00.582Z,102663.03
2023-02-13T20:58:03.418Z,102662.88
2023-02-13T21:03:07.560Z,102664.13
2023-02-13T21:08:10.574Z,102666.25
2023-02-13T21:13:13.298Z,102678.56
2023-02-13T21:18:18.199Z,102696.97
2023-02-13T21:23:21.906Z,102703.59
2023-02-13T21:28:24.618Z,102713.56
2023-02-13T21:33:28.673Z,102712.78
2023-02-13T21:38:31.413Z,102721.81
2023-02-13T21:43:37.598Z,102722.13
2023-02-13T21:48:42.848Z,102723.31
2023-02-13T21:53:46.448Z,102721.75
2023-02-13T21:58:49.186Z,102731.41
2023-02-13T22:03:53.653Z,102724.94
2023-02-13T22:09:00.610Z,102725.94
2023-02-13T22:14:05.220Z,102722.66
2023-02-13T22:19:09.268Z,102726.25
2023-02-13T22:24:12.176Z,102727.25
2023-02-13T22:29:16.111Z,102731.47
2023-02-13T22:34:20.327Z,102736.41
2023-02-13T22:39:23.035Z,102752.66
2023-02-13T22:44:25.828Z,102750.03
2023-02-13T22:49:29.871Z,102744.97
2023-02-13T22:54:32.585Z,102758.25
2023-02-13T22:59:37.801Z,102749.56
2023-02-13T23:04:44.625Z,102793.75
2023-02-13T23:09:47.471Z,102805.88
2023-02-13T23:14:50.203Z,102808.00
2023-02-13T23:19:54.288Z,102826.88
2023-02-13T23:24:57.341Z,102825.00
2023-02-13T23:30:00.116Z,102838.34
2023-02-13T23:35:04.901Z,102842.47
2023-02-13T23:40:09.512Z,102841.44
2023-02-13T23:45:13.218Z,102862.09
2023-02-13T23:50:17.415Z,102860.66
2023-02-13T23:55:20.341Z,102872.22
